Time;durP1;ratioP1;P1;durP2;ratioP2;P2;SDS_P1;SDS_P2;PMS_P1;PMS_P2;Temp;Humidity;BMP_temperature;BMP_pressure;BME280_temperature;BME280_humidity;BME280_pressure;Samples;Min_cycle;Max_cycle;Signal;HPM_P1;HPM_P2
2023/08/24 08:24:16;;;;;;;2.20;1.50;;;27.10;99.90;;;;;;4836037;29;20307;-72
2023/08/24 08:26:43;;;;;;;6.68;1.40;;;27.00;99.90;;;;;;4825787;29;20300;-72
2023/08/24 08:29:10;;;;;;;2.03;1.45;;;27.00;99.90;;;;;;4824336;29;20263;-70
2023/08/24 08:31:37;;;;;;;3.95;1.55;;;27.00;99.90;;;;;;4824246;29;20218;-71
2023/08/24 08:34:04;;;;;;;2.92;1.48;;;27.10;99.90;;;;;;4824588;29;20209;-71
2023/08/24 08:36:32;;;;;;;2.97;1.33;;;27.30;99.90;;;;;;4824540;29;20308;-71
2023/08/24 08:38:59;;;;;;;2.78;1.42;;;27.40;99.90;;;;;;4824393;29;20225;-72
2023/08/24 08:41:34;;;;;;;2.55;1.55;;;27.30;99.90;;;;;;4824261;29;20304;-71
2023/08/24 08:44:06;;;;;;;3.17;1.48;;;27.50;99.90;;;;;;4816910;29;20217;-71
2023/08/24 08:46:33;;;;;;;2.20;1.33;;;27.50;99.90;;;;;;4824508;29;20213;-71
2023/08/24 08:49:02;;;;;;;2.88;1.75;;;27.60;99.90;;;;;;4824183;29;20393;-71
2023/08/24 08:51:30;;;;;;;2.83;1.55;;;27.80;99.90;;;;;;4823681;29;20221;-71
2023/08/24 08:53:57;;;;;;;3.45;1.50;;;27.90;99.90;;;;;;4824300;29;20308;-71
2023/08/24 08:56:24;;;;;;;1.88;1.30;;;28.00;99.90;;;;;;4824776;29;20307;-71
2023/08/24 08:58:54;;;;;;;3.45;1.60;;;27.80;99.90;;;;;;4823847;29;20325;-72
2023/08/24 09:01:22;;;;;;;2.25;1.38;;;27.80;99.90;;;;;;4824322;29;20210;-71
2023/08/24 09:03:50;;;;;;;2.38;1.20;;;27.80;99.90;;;;;;4823817;29;20214;-71
2023/08/24 09:06:16;;;;;;;3.08;1.75;;;27.90;99.90;;;;;;4824044;29;20216;-71
2023/08/24 09:08:45;;;;;;;3.38;1.48;;;27.80;99.90;;;;;;4823466;29;20647;-73
2023/08/24 09:11:12;;;;;;;2.92;1.48;;;27.70;99.90;;;;;;4821114;29;20293;-74
2023/08/24 09:13:39;;;;;;;1.77;1.30;;;27.50;99.90;;;;;;4823927;29;20304;-74
2023/08/24 09:16:08;;;;;;;2.10;1.30;;;27.30;99.90;;;;;;4823836;29;20832;-74
2023/08/24 09:18:36;;;;;;;4.40;1.42;;;27.40;99.90;;;;;;4823759;29;20352;-74
2023/08/24 09:21:09;;;;;;;2.50;1.27;;;27.30;99.90;;;;;;4823119;29;20737;-74
2023/08/24 09:23:36;;;;;;;5.13;1.58;;;27.10;99.90;;;;;;4823567;29;20447;-73
2023/08/24 09:26:04;;;;;;;3.70;1.52;;;26.80;99.90;;;;;;4820542;29;21084;-74
2023/08/24 09:28:31;;;;;;;3.78;1.48;;;26.70;99.90;;;;;;4819744;29;20693;-72
2023/08/24 09:31:01;;;;;;;3.42;1.70;;;26.60;99.90;;;;;;4822186;29;20252;-73
2023/08/24 09:33:30;;;;;;;7.82;2.00;;;26.40;99.90;;;;;;4821827;29;20301;-73
2023/08/24 09:36:01;;;;;;;3.97;1.30;;;26.30;99.90;;;;;;4822595;29;20319;-73
2023/08/24 09:38:29;;;;;;;4.55;1.80;;;26.30;99.90;;;;;;4822215;29;20667;-73
2023/08/24 09:40:57;;;;;;;2.78;1.40;;;26.10;99.90;;;;;;4821643;29;20218;-72
2023/08/24 09:43:25;;;;;;;4.40;1.73;;;25.80;99.90;;;;;;4814669;29;20585;-73
2023/08/24 09:45:53;;;;;;;3.65;1.70;;;25.50;99.90;;;;;;4822239;29;20214;-72
2023/08/24 09:48:21;;;;;;;3.00;1.63;;;24.80;99.90;;;;;;4821707;29;20323;-72
2023/08/24 09:50:51;;;;;;;2.80;1.70;;;24.30;99.90;;;;;;4821515;29;20213;-75
2023/08/24 09:53:20;;;;;;;2.80;1.90;;;23.90;99.90;;;;;;4821143;29;20245;-74
2023/08/24 09:55:54;;;;;;;3.45;2.20;;;23.60;99.90;;;;;;4821287;29;20231;-73
2023/08/24 09:58:22;;;;;;;3.50;2.10;;;23.30;99.90;;;;;;4821901;29;20236;-72
2023/08/24 10:00:50;;;;;;;5.82;2.15;;;22.90;99.90;;;;;;4821978;29;20219;-73
2023/08/24 10:03:21;;;;;;;4.78;2.30;;;22.50;99.90;;;;;;4823271;29;20300;-74
2023/08/24 10:05:54;;;;;;;5.05;2.30;;;22.40;99.90;;;;;;4825071;29;20216;-75
2023/08/24 10:08:27;;;;;;;5.15;2.40;;;22.20;99.90;;;;;;4826465;29;20229;-76
2023/08/24 10:10:56;;;;;;;5.05;2.60;;;22.00;99.90;;;;;;4826996;29;20300;-77
2023/08/24 10:13:30;;;;;;;8.77;3.13;;;22.00;99.90;;;;;;4825961;29;20292;-76
2023/08/24 10:15:57;;;;;;;2.97;2.30;;;22.00;99.90;;;;;;4826721;29;20263;-75
2023/08/24 10:18:26;;;;;;;4.30;2.53;;;21.90;99.90;;;;;;4826477;29;20272;-76
2023/08/24 10:20:54;;;;;;;6.75;2.72;;;21.90;99.90;;;;;;4826458;29;20217;-77
2023/08/24 10:23:22;;;;;;;4.57;2.30;;;21.80;99.90;;;;;;4825770;29;20296;-76
2023/08/24 10:25:51;;;;;;;2.78;1.98;;;21.80;99.90;;;;;;4826672;29;20288;-76
2023/08/24 10:28:20;;;;;;;3.60;1.95;;;21.70;99.90;;;;;;4826275;29;20325;-78
2023/08/24 10:30:49;;;;;;;3.15;1.88;;;21.60;99.90;;;;;;4826510;29;20217;-77
2023/08/24 10:33:17;;;;;;;4.82;2.45;;;21.50;99.90;;;;;;4826452;29;20296;-77
2023/08/24 10:35:46;;;;;;;3.38;2.20;;;21.40;99.90;;;;;;4815687;29;20282;-76
2023/08/24 10:38:26;;;;;;;4.95;2.13;;;21.50;99.90;;;;;;4838701;29;20257;-78
2023/08/24 10:40:53;;;;;;;2.78;1.85;;;21.50;99.90;;;;;;4820978;29;20214;-77
2023/08/24 10:43:20;;;;;;;6.75;2.30;;;21.30;99.90;;;;;;4826552;29;20260;-77
2023/08/24 10:45:58;;;;;;;2.50;1.70;;;21.10;99.90;;;;;;4826186;29;20733;-77
2023/08/24 10:48:26;;;;;;;3.78;1.75;;;21.10;99.90;;;;;;4812302;29;20233;-77
2023/08/24 10:51:19;;;;;;;2.95;1.90;;;21.10;99.90;;;;;;4825881;29;20328;-77
2023/08/24 10:53:49;;;;;;;2.92;2.05;;;21.10;99.90;;;;;;4826234;29;20214;-77
2023/08/24 10:56:17;;;;;;;2.90;2.00;;;21.10;99.90;;;;;;4825555;29;20847;-77
2023/08/24 10:58:46;;;;;;;4.97;2.05;;;21.20;99.90;;;;;;4826013;29;20261;-78
2023/08/24 11:01:18;;;;;;;2.63;1.90;;;21.20;99.90;;;;;;4825675;29;20764;-78
2023/08/24 11:03:51;;;;;;;3.63;2.28;;;21.30;99.90;;;;;;4825991;29;20210;-78
2023/08/24 11:06:22;;;;;;;5.68;2.40;;;21.30;99.90;;;;;;4825373;29;20220;-77
2023/08/24 11:09:06;;;;;;;2.95;2.03;;;21.30;99.90;;;;;;4825905;29;20236;-77
2023/08/24 11:11:33;;;;;;;3.45;2.15;;;21.40;99.90;;;;;;4825491;29;20304;-78
2023/08/24 11:14:26;;;;;;;5.47;2.83;;;21.50;99.90;;;;;;4825711;29;20267;-77
2023/08/24 11:16:53;;;;;;;4.45;2.45;;;21.80;99.90;;;;;;4806290;29;20218;-77
2023/08/24 11:19:20;;;;;;;3.40;2.00;;;22.00;99.90;;;;;;4825517;29;20320;-77
2023/08/24 11:21:48;;;;;;;2.60;2.08;;;22.10;99.90;;;;;;4825508;29;20221;-78
2023/08/24 11:24:17;;;;;;;6.22;2.47;;;22.00;99.90;;;;;;4825161;29;20304;-77
2023/08/24 11:26:45;;;;;;;2.50;2.03;;;22.00;99.90;;;;;;4825231;29;20768;-77
2023/08/24 11:29:13;;;;;;;5.22;2.65;;;22.10;99.90;;;;;;4825163;29;20245;-77
2023/08/24 11:31:41;;;;;;;3.50;2.30;;;22.10;99.90;;;;;;4825380;29;20297;-77
2023/08/24 11:34:08;;;;;;;3.42;2.05;;;22.20;99.90;;;;;;4825737;29;20304;-77
2023/08/24 11:36:43;;;;;;;3.75;2.28;;;22.40;99.90;;;;;;4825486;29;20301;-76
2023/08/24 11:39:19;;;;;;;3.80;2.17;;;22.50;99.90;;;;;;4825376;29;20236;-77
2023/08/24 11:41:48;;;;;;;4.10;1.77;;;22.50;99.90;;;;;;4825581;29;20580;-77
2023/08/24 11:44:15;;;;;;;3.60;2.25;;;22.60;99.90;;;;;;4825610;29;20225;-77
2023/08/24 11:46:42;;;;;;;3.55;2.00;;;22.60;99.90;;;;;;4825524;29;20241;-78
2023/08/24 11:49:09;;;;;;;4.68;1.90;;;22.50;99.90;;;;;;4824987;29;20590;-78
2023/08/24 11:51:37;;;;;;;3.38;1.95;;;22.60;99.90;;;;;;4825428;29;20630;-78
2023/08/24 11:54:05;;;;;;;2.50;1.95;;;22.50;99.90;;;;;;4825476;29;20309;-77
2023/08/24 11:56:33;;;;;;;2.80;1.85;;;22.50;99.90;;;;;;4824529;29;20304;-78
2023/08/24 11:59:00;;;;;;;4.40;2.00;;;22.40;99.90;;;;;;4824865;29;20265;-78
2023/08/24 12:01:28;;;;;;;4.57;2.53;;;22.40;99.90;;;;;;4824677;29;20256;-77
2023/08/24 12:03:55;;;;;;;2.78;2.03;;;22.50;99.90;;;;;;4824490;29;20263;-78
2023/08/24 12:06:21;;;;;;;2.97;1.90;;;22.70;99.90;;;;;;4818590;29;20297;-75
2023/08/24 12:08:50;;;;;;;2.70;1.83;;;22.70;99.90;;;;;;4822927;29;20277;-75
2023/08/24 12:11:18;;;;;;;3.90;1.92;;;22.80;99.90;;;;;;4822898;29;20368;-75
2023/08/24 12:13:47;;;;;;;2.55;1.83;;;22.70;99.90;;;;;;4822696;29;20281;-75
2023/08/24 12:16:16;;;;;;;3.47;2.00;;;22.70;99.90;;;;;;4822700;29;20320;-75
2023/08/24 12:18:52;;;;;;;3.47;1.77;;;22.40;99.90;;;;;;4822946;29;20285;-73
2023/08/24 12:21:19;;;;;;;3.38;1.95;;;22.20;99.90;;;;;;4815619;29;20772;-74
2023/08/24 12:23:55;;;;;;;2.30;1.90;;;22.20;99.90;;;;;;4822643;29;20213;-74
2023/08/24 12:26:22;;;;;;;2.60;1.60;;;22.20;99.90;;;;;;4822358;29;20304;-73
2023/08/24 12:28:54;;;;;;;4.80;2.00;;;22.00;99.90;;;;;;4822185;29;20261;-75
2023/08/24 12:31:21;;;;;;;5.32;2.20;;;21.80;99.90;;;;;;4816633;29;20273;-73
2023/08/24 12:34:00;;;;;;;3.15;1.85;;;21.70;99.90;;;;;;4823841;29;20721;-73
2023/08/24 12:36:27;;;;;;;3.17;1.88;;;21.60;99.90;;;;;;4823463;29;20248;-72
2023/08/24 12:38:54;;;;;;;5.97;1.98;;;21.50;99.90;;;;;;4823597;29;20269;-73
2023/08/24 12:41:21;;;;;;;4.45;2.28;;;21.40;99.90;;;;;;4823704;29;20734;-72
2023/08/24 12:43:48;;;;;;;3.70;2.40;;;21.30;99.90;;;;;;4823765;29;20695;-72
2023/08/24 12:46:16;;;;;;;2.33;1.80;;;21.30;99.90;;;;;;4823299;29;20297;-72
2023/08/24 12:48:43;;;;;;;3.10;2.20;;;21.20;99.90;;;;;;4823297;29;20257;-73
2023/08/24 12:51:10;;;;;;;6.45;1.80;;;21.10;99.90;;;;;;4823216;29;20776;-73
2023/08/24 12:53:37;;;;;;;3.92;1.88;;;21.10;99.90;;;;;;4823883;29;20206;-74
2023/08/24 12:56:04;;;;;;;2.67;1.83;;;21.00;99.90;;;;;;4823583;29;20244;-73
2023/08/24 12:58:31;;;;;;;4.68;2.13;;;20.90;99.90;;;;;;4823768;29;20784;-73
2023/08/24 13:00:58;;;;;;;3.78;1.73;;;20.90;99.90;;;;;;4823729;29;20305;-72
2023/08/24 13:03:26;;;;;;;4.38;1.80;;;20.80;99.90;;;;;;4823531;29;20273;-74
2023/08/24 13:05:53;;;;;;;2.92;1.80;;;20.70;99.90;;;;;;4823725;29;20296;-73
2023/08/24 13:08:20;;;;;;;2.50;1.83;;;20.60;99.90;;;;;;4823560;29;20257;-75
2023/08/24 13:10:47;;;;;;;1.70;1.50;;;20.60;99.90;;;;;;4823242;29;20237;-77
2023/08/24 13:13:13;;;;;;;2.42;1.63;;;20.50;99.90;;;;;;4823331;29;20657;-77
2023/08/24 13:15:41;;;;;;;2.40;1.50;;;20.50;99.90;;;;;;4823198;29;20631;-76
2023/08/24 13:18:08;;;;;;;5.03;1.50;;;20.60;99.90;;;;;;4823620;29;20220;-77
2023/08/24 13:20:36;;;;;;;2.35;1.40;;;20.60;99.90;;;;;;4823650;29;20266;-75
2023/08/24 13:23:03;;;;;;;2.88;1.50;;;20.60;99.90;;;;;;4823360;29;20304;-73
2023/08/24 13:25:30;;;;;;;3.50;1.45;;;20.50;99.90;;;;;;4823222;29;20248;-73
2023/08/24 13:27:57;;;;;;;4.72;2.05;;;20.50;99.90;;;;;;4823355;29;20296;-74
2023/08/24 13:30:24;;;;;;;2.75;1.48;;;20.50;99.90;;;;;;4822746;29;20324;-75
2023/08/24 13:32:51;;;;;;;2.08;1.38;;;20.50;99.90;;;;;;4823272;29;20256;-74
2023/08/24 13:35:18;;;;;;;2.30;1.38;;;20.50;99.90;;;;;;4822982;29;20300;-75
2023/08/24 13:37:46;;;;;;;3.17;1.48;;;20.50;99.90;;;;;;4822614;29;20638;-75
2023/08/24 13:40:13;;;;;;;5.65;1.20;;;20.50;99.90;;;;;;4823079;29;20261;-75
2023/08/24 13:42:40;;;;;;;1.45;0.98;;;20.60;99.90;;;;;;4823683;29;20317;-75
2023/08/24 13:45:07;;;;;;;4.57;1.02;;;20.60;99.90;;;;;;4823730;29;20304;-74
2023/08/24 13:47:34;;;;;;;3.28;1.33;;;20.60;99.90;;;;;;4823285;29;20292;-74
2023/08/24 13:50:02;;;;;;;1.63;1.00;;;20.70;99.90;;;;;;4823411;29;20328;-77
2023/08/24 13:52:29;;;;;;;2.53;1.20;;;20.70;99.90;;;;;;4823240;29;20218;-77
2023/08/24 13:54:57;;;;;;;2.58;1.30;;;20.80;99.90;;;;;;4823669;29;20296;-78
2023/08/24 13:57:24;;;;;;;1.48;1.10;;;20.70;99.90;;;;;;4818185;29;20304;-75
2023/08/24 13:59:51;;;;;;;2.75;1.10;;;20.90;99.90;;;;;;4823485;29;20316;-73
2023/08/24 14:02:17;;;;;;;2.03;1.10;;;20.90;99.90;;;;;;4823543;29;20732;-76
2023/08/24 14:04:44;;;;;;;2.45;1.00;;;21.00;99.90;;;;;;4823298;29;20305;-73
2023/08/24 14:07:11;;;;;;;3.08;1.10;;;21.10;99.90;;;;;;4823140;29;20309;-74
2023/08/24 14:09:38;;;;;;;2.42;1.10;;;21.20;99.90;;;;;;4823003;29;20265;-80
2023/08/24 14:12:07;;;;;;;3.28;1.23;;;21.20;99.90;;;;;;4823540;29;20309;-72
2023/08/24 14:14:34;;;;;;;1.85;1.00;;;21.30;99.90;;;;;;4823455;29;20217;-72
2023/08/24 14:17:01;;;;;;;1.52;0.80;;;21.30;99.90;;;;;;4823449;29;20305;-73
2023/08/24 14:19:27;;;;;;;1.05;0.80;;;21.50;99.90;;;;;;4824100;29;20237;-73
2023/08/24 14:21:54;;;;;;;2.05;1.00;;;21.50;99.90;;;;;;4823456;29;20263;-73
2023/08/24 14:24:21;;;;;;;1.80;1.00;;;21.50;99.90;;;;;;4823471;29;20249;-73
2023/08/24 14:26:48;;;;;;;3.50;0.93;;;21.50;99.90;;;;;;4823583;29;20573;-72
2023/08/24 14:29:17;;;;;;;3.85;0.98;;;21.40;99.90;;;;;;4823487;29;20260;-72
2023/08/24 14:31:44;;;;;;;1.15;0.70;;;21.50;99.90;;;;;;4823489;29;20324;-73
2023/08/24 14:34:10;;;;;;;2.15;0.70;;;21.50;99.90;;;;;;4823552;29;20308;-72
2023/08/24 14:36:37;;;;;;;2.90;0.80;;;21.70;99.90;;;;;;4823472;29;20350;-72
2023/08/24 14:39:04;;;;;;;1.40;0.73;;;21.70;99.90;;;;;;4823344;29;20316;-72
2023/08/24 14:41:31;;;;;;;1.63;0.70;;;21.80;99.90;;;;;;4823361;29;20257;-72
2023/08/24 14:43:58;;;;;;;1.83;0.80;;;21.80;99.90;;;;;;4823235;29;20241;-72
2023/08/24 14:46:26;;;;;;;0.90;0.60;;;21.70;99.90;;;;;;4823365;29;20270;-72
2023/08/24 14:48:53;;;;;;;1.45;0.70;;;21.80;99.90;;;;;;4824260;29;20344;-72
2023/08/24 14:51:20;;;;;;;3.15;0.70;;;21.90;99.90;;;;;;4826545;29;20332;-72
2023/08/24 14:53:47;;;;;;;2.40;0.73;;;21.90;99.90;;;;;;4826101;29;20253;-72
2023/08/24 14:56:14;;;;;;;2.38;0.90;;;22.00;99.90;;;;;;4826382;29;20740;-72
2023/08/24 14:58:41;;;;;;;3.58;0.77;;;22.10;99.90;;;;;;4826310;29;20246;-73
2023/08/24 15:01:07;;;;;;;1.85;0.80;;;22.20;99.90;;;;;;4826261;29;20245;-72
2023/08/24 15:03:37;;;;;;;1.13;0.70;;;22.20;99.90;;;;;;4826454;29;20214;-72
2023/08/24 15:06:06;;;;;;;1.88;0.57;;;22.30;99.90;;;;;;4826224;29;20776;-73
2023/08/24 15:08:33;;;;;;;4.63;0.82;;;22.30;99.90;;;;;;4826176;29;20237;-72
2023/08/24 15:11:01;;;;;;;1.40;0.60;;;22.40;99.90;;;;;;4826244;29;20777;-73
2023/08/24 15:13:30;;;;;;;1.05;0.70;;;22.50;99.90;;;;;;4826039;29;20237;-73
2023/08/24 15:15:58;;;;;;;2.80;0.60;;;22.50;99.90;;;;;;4825802;29;20264;-73
2023/08/24 15:18:26;;;;;;;1.73;0.60;;;22.50;99.90;;;;;;4825879;29;20317;-72
2023/08/24 15:20:55;;;;;;;1.38;0.52;;;22.60;99.90;;;;;;4826005;29;20496;-72
2023/08/24 15:23:26;;;;;;;1.42;0.60;;;22.80;99.90;;;;;;4825734;29;20304;-73
2023/08/24 15:25:54;;;;;;;1.58;0.82;;;22.70;99.90;;;;;;4825827;29;20345;-73
2023/08/24 15:28:21;;;;;;;0.88;0.50;;;22.70;99.90;;;;;;4825631;29;20372;-72
2023/08/24 15:30:48;;;;;;;2.63;1.83;;;22.90;99.90;;;;;;4825845;29;20327;-73
2023/08/24 15:33:15;;;;;;;5.07;2.70;;;22.90;99.90;;;;;;4825675;29;20292;-73
2023/08/24 15:35:42;;;;;;;1.40;0.80;;;23.10;99.90;;;;;;4825649;29;20308;-72
2023/08/24 15:38:11;;;;;;;2.53;1.35;;;23.10;99.90;;;;;;4825657;29;20275;-72
2023/08/24 15:40:39;;;;;;;1.75;1.00;;;23.20;99.90;;;;;;4825591;29;20214;-72
2023/08/24 15:43:07;;;;;;;1.50;0.60;;;23.40;99.90;;;;;;4825752;29;20209;-72
2023/08/24 15:45:34;;;;;;;1.17;0.50;;;23.50;99.90;;;;;;4825805;29;20316;-72
2023/08/24 15:48:01;;;;;;;1.50;0.50;;;23.50;99.90;;;;;;4825264;29;20293;-72
2023/08/24 15:50:29;;;;;;;2.00;0.60;;;23.60;99.90;;;;;;4825365;29;20795;-72
2023/08/24 15:52:59;;;;;;;1.67;0.98;;;23.80;99.90;;;;;;4825483;29;20574;-73
2023/08/24 15:55:29;;;;;;;1.05;0.60;;;24.10;99.90;;;;;;4825527;29;20741;-72
2023/08/24 15:57:56;;;;;;;0.70;0.47;;;24.20;99.90;;;;;;4825351;29;20219;-72
2023/08/24 16:00:23;;;;;;;1.88;0.40;;;24.30;99.90;;;;;;4824448;29;20260;-73
2023/08/24 16:02:50;;;;;;;0.98;0.60;;;24.50;99.90;;;;;;4825396;29;20665;-71
2023/08/24 16:05:17;;;;;;;0.75;0.45;;;24.80;99.90;;;;;;4825521;29;20213;-71
2023/08/24 16:07:44;;;;;;;1.08;0.70;;;24.90;99.90;;;;;;4824797;29;20640;-71
2023/08/24 16:10:11;;;;;;;1.65;0.70;;;25.00;99.90;;;;;;4824816;29;20320;-71
2023/08/24 16:12:40;;;;;;;2.60;0.60;;;25.10;99.90;;;;;;4824946;29;20300;-71
2023/08/24 16:15:08;;;;;;;0.77;0.50;;;25.10;99.90;;;;;;4825217;29;20257;-71
2023/08/24 16:17:35;;;;;;;0.70;0.50;;;25.10;99.90;;;;;;4825205;29;20297;-71
2023/08/24 16:20:06;;;;;;;1.83;0.60;;;24.90;99.90;;;;;;4824959;29;20238;-71
2023/08/24 16:22:33;;;;;;;1.00;0.63;;;25.20;99.90;;;;;;4824634;29;20290;-70
2023/08/24 16:25:00;;;;;;;1.10;0.47;;;25.40;99.90;;;;;;4825208;29;20304;-70
2023/08/24 16:27:27;;;;;;;0.98;0.50;;;25.40;99.90;;;;;;4825008;29;20300;-71
2023/08/24 16:29:55;;;;;;;5.10;0.65;;;25.40;99.90;;;;;;4824797;29;20329;-71
2023/08/24 16:32:23;;;;;;;1.42;0.60;;;25.30;99.90;;;;;;4825149;29;20331;-73
2023/08/24 16:34:50;;;;;;;1.02;0.65;;;25.30;99.90;;;;;;4824829;29;20249;-73
2023/08/24 16:37:16;;;;;;;1.40;0.50;;;25.20;99.90;;;;;;4824912;29;20308;-73
2023/08/24 16:39:43;;;;;;;0.80;0.50;;;25.30;99.90;;;;;;4824877;29;20268;-73
2023/08/24 16:42:10;;;;;;;1.05;0.60;;;25.20;99.90;;;;;;4824649;29;20266;-73
2023/08/24 16:44:37;;;;;;;2.35;0.68;;;25.20;99.90;;;;;;4824669;29;20252;-73
2023/08/24 16:47:06;;;;;;;2.55;0.70;;;24.80;99.90;;;;;;4824382;29;20210;-71
2023/08/24 16:49:32;;;;;;;1.63;0.60;;;24.70;99.90;;;;;;4824428;29;20390;-73
2023/08/24 16:51:59;;;;;;;1.30;0.40;;;24.70;99.90;;;;;;4824583;29;20336;-73
2023/08/24 16:54:26;;;;;;;0.93;0.65;;;24.80;99.90;;;;;;4824414;29;20304;-71
2023/08/24 16:56:53;;;;;;;1.77;1.08;;;24.80;99.90;;;;;;4824300;29;20487;-71
2023/08/24 16:59:20;;;;;;;1.85;0.60;;;24.90;99.90;;;;;;4824036;29;20316;-74
2023/08/24 17:01:47;;;;;;;0.73;0.60;;;24.90;99.90;;;;;;4824307;29;20221;-71
2023/08/24 17:04:15;;;;;;;1.05;0.80;;;25.00;99.90;;;;;;4824299;29;20300;-71
2023/08/24 17:06:42;;;;;;;0.88;0.73;;;25.10;99.90;;;;;;4824277;29;20674;-71
2023/08/24 17:09:09;;;;;;;1.30;0.75;;;25.00;99.90;;;;;;4824083;29;20320;-71
2023/08/24 17:11:36;;;;;;;0.73;0.60;;;25.00;99.90;;;;;;4823984;29;20332;-71
2023/08/24 17:14:03;;;;;;;1.50;0.80;;;24.90;99.90;;;;;;4824361;29;20301;-71
2023/08/24 17:16:29;;;;;;;2.40;0.88;;;24.90;99.90;;;;;;4824194;29;20290;-71
2023/08/24 17:18:56;;;;;;;2.25;0.80;;;24.90;99.90;;;;;;4824035;29;20276;-73
2023/08/24 17:21:25;;;;;;;0.77;0.40;;;24.90;99.90;;;;;;4824186;29;20312;-73
2023/08/24 17:23:51;;;;;;;2.00;0.70;;;24.90;99.90;;;;;;4823928;29;20728;-74
2023/08/24 17:26:18;;;;;;;1.73;0.60;;;24.90;99.90;;;;;;4823976;29;20217;-71
2023/08/24 17:28:45;;;;;;;0.63;0.60;;;24.90;99.90;;;;;;4823927;29;20324;-71
2023/08/24 17:31:12;;;;;;;1.35;0.82;;;24.90;99.90;;;;;;4823699;29;20328;-71
2023/08/24 17:33:39;;;;;;;1.95;1.23;;;24.90;99.90;;;;;;4824010;29;20300;-71
2023/08/24 17:36:06;;;;;;;1.88;0.90;;;24.90;99.90;;;;;;4823986;29;20249;-72
2023/08/24 17:38:34;;;;;;;0.90;0.68;;;24.50;99.90;;;;;;4824037;29;20269;-72
2023/08/24 17:41:02;;;;;;;1.85;0.77;;;24.50;99.90;;;;;;4824151;29;20277;-72
2023/08/24 17:43:29;;;;;;;1.75;0.55;;;24.50;99.90;;;;;;4824081;29;20236;-71
2023/08/24 17:45:56;;;;;;;1.67;0.70;;;24.50;99.90;;;;;;4824038;29;20756;-73
2023/08/24 17:48:23;;;;;;;1.50;0.70;;;24.50;99.90;;;;;;4823906;29;20325;-71
2023/08/24 17:50:54;;;;;;;1.02;0.70;;;24.40;99.90;;;;;;4823982;29;20304;-73
2023/08/24 17:53:27;;;;;;;1.50;0.82;;;24.40;99.90;;;;;;4824143;29;20626;-71
2023/08/24 17:55:55;;;;;;;1.65;0.90;;;24.40;99.90;;;;;;4823896;29;20221;-71
2023/08/24 17:58:23;;;;;;;1.23;0.80;;;24.40;99.90;;;;;;4823766;29;20257;-71
2023/08/24 18:00:50;;;;;;;2.00;0.93;;;24.30;99.90;;;;;;4823967;29;20297;-71
2023/08/24 18:03:18;;;;;;;3.03;0.82;;;24.30;99.90;;;;;;4823978;29;20577;-71
2023/08/24 18:05:45;;;;;;;4.65;0.80;;;24.30;99.90;;;;;;4823655;29;20244;-71
2023/08/24 18:08:12;;;;;;;1.73;0.98;;;24.20;99.90;;;;;;4823849;29;20320;-71
2023/08/24 18:10:40;;;;;;;2.05;0.80;;;24.10;99.90;;;;;;4823785;29;20213;-73
2023/08/24 18:13:08;;;;;;;1.38;0.80;;;24.00;99.90;;;;;;4823456;29;20349;-72
2023/08/24 18:15:35;;;;;;;0.90;0.68;;;23.90;99.90;;;;;;4823834;29;20241;-72
2023/08/24 18:18:03;;;;;;;2.78;0.85;;;23.90;99.90;;;;;;4823895;29;20214;-72
2023/08/24 18:20:31;;;;;;;2.33;1.00;;;23.90;99.90;;;;;;4824022;29;20256;-72
2023/08/24 18:22:58;;;;;;;3.00;0.80;;;23.80;99.90;;;;;;4823301;29;20252;-72
2023/08/24 18:25:26;;;;;;;3.35;0.90;;;23.70;99.90;;;;;;4826785;29;20245;-72
2023/08/24 18:27:53;;;;;;;1.15;0.85;;;23.50;99.90;;;;;;4826961;29;20297;-72
2023/08/24 18:30:21;;;;;;;3.53;0.80;;;23.40;99.90;;;;;;4826832;29;20746;-72
2023/08/24 18:32:48;;;;;;;1.55;0.93;;;23.30;99.90;;;;;;4826837;29;20787;-72
2023/08/24 18:35:15;;;;;;;3.60;0.88;;;23.20;99.90;;;;;;4826828;29;20292;-72
2023/08/24 18:37:42;;;;;;;11.32;6.28;;;23.20;99.90;;;;;;4826762;29;20640;-73
2023/08/24 18:40:09;;;;;;;3.53;2.30;;;23.10;99.90;;;;;;4826491;29;20776;-72
2023/08/24 18:42:36;;;;;;;2.60;1.20;;;23.00;99.90;;;;;;4826524;29;20308;-72
2023/08/24 18:45:04;;;;;;;4.10;1.15;;;22.90;99.90;;;;;;4826439;29;20221;-71
2023/08/24 18:47:33;;;;;;;2.83;1.23;;;22.90;99.90;;;;;;4826675;29;20218;-72
2023/08/24 18:50:00;;;;;;;2.55;1.00;;;22.80;99.90;;;;;;4826629;29;20254;-72
2023/08/24 18:52:28;;;;;;;1.58;0.90;;;22.70;99.90;;;;;;4826255;29;20336;-72
2023/08/24 18:54:55;;;;;;;3.10;0.88;;;22.70;99.90;;;;;;4826097;29;20248;-71
2023/08/24 18:57:22;;;;;;;2.72;0.73;;;22.60;99.90;;;;;;4826508;29;20213;-71
2023/08/24 18:59:49;;;;;;;1.73;0.90;;;22.70;99.90;;;;;;4826207;29;20780;-72
2023/08/24 19:02:18;;;;;;;1.02;0.60;;;22.60;99.90;;;;;;4826273;29;20654;-72
2023/08/24 19:04:46;;;;;;;1.10;0.70;;;22.50;99.90;;;;;;4826220;29;20312;-72
2023/08/24 19:07:13;;;;;;;1.45;0.90;;;22.40;99.90;;;;;;4826191;29;20296;-71
2023/08/24 19:09:40;;;;;;;3.17;1.00;;;22.40;99.90;;;;;;4826197;29;20320;-71
2023/08/24 19:12:08;;;;;;;2.05;0.90;;;22.30;99.90;;;;;;4826153;29;20324;-71
2023/08/24 19:14:35;;;;;;;1.23;0.90;;;22.30;99.90;;;;;;4826149;29;20304;-72
2023/08/24 19:17:02;;;;;;;2.22;0.90;;;22.20;99.90;;;;;;4826089;29;20224;-72
2023/08/24 19:19:29;;;;;;;1.08;0.70;;;22.10;99.90;;;;;;4825815;29;20269;-71
2023/08/24 19:21:57;;;;;;;3.90;0.98;;;22.00;99.90;;;;;;4825941;29;20259;-71
2023/08/24 19:24:24;;;;;;;2.35;0.90;;;22.00;99.90;;;;;;4825734;29;20305;-71
2023/08/24 19:26:51;;;;;;;3.15;0.85;;;21.90;99.90;;;;;;4825791;29;20765;-72
2023/08/24 19:29:18;;;;;;;3.83;2.60;;;21.80;99.90;;;;;;4825423;29;20238;-72
2023/08/24 19:31:45;;;;;;;1.75;1.20;;;21.90;99.90;;;;;;4825591;29;20323;-71
2023/08/24 19:34:12;;;;;;;1.55;0.90;;;21.80;99.90;;;;;;4825624;29;20289;-72
2023/08/24 19:36:39;;;;;;;2.38;1.20;;;21.80;99.90;;;;;;4824548;29;20724;-72
2023/08/24 19:39:07;;;;;;;1.83;1.10;;;21.70;99.90;;;;;;4825055;29;20321;-72
2023/08/24 19:41:34;;;;;;;4.47;0.80;;;21.70;99.90;;;;;;4825555;29;20274;-71
2023/08/24 19:44:01;;;;;;;2.85;1.00;;;21.40;99.90;;;;;;4825740;29;20304;-72
2023/08/24 19:46:28;;;;;;;1.98;1.00;;;21.50;99.90;;;;;;4825521;29;20696;-71
2023/08/24 19:48:55;;;;;;;1.83;1.27;;;21.50;99.90;;;;;;4825473;29;20247;-71
2023/08/24 19:51:23;;;;;;;2.33;1.10;;;21.50;99.90;;;;;;4825710;29;20214;-71
2023/08/24 19:53:50;;;;;;;1.73;0.90;;;21.40;99.90;;;;;;4825066;29;20737;-71
2023/08/24 19:56:18;;;;;;;1.85;1.13;;;21.20;99.90;;;;;;4825529;29;20752;-72
2023/08/24 19:58:45;;;;;;;2.17;1.15;;;21.30;99.90;;;;;;4825483;29;20272;-71
2023/08/24 20:01:11;;;;;;;6.30;1.83;;;21.40;99.90;;;;;;4825402;29;20256;-71
2023/08/24 20:03:38;;;;;;;1.52;1.10;;;21.40;99.90;;;;;;4825256;29;20260;-71
2023/08/24 20:06:19;;;;;;;1.65;1.20;;;21.40;99.90;;;;;;4825542;29;20256;-71
2023/08/24 20:08:46;;;;;;;2.00;1.15;;;21.40;99.90;;;;;;4825246;29;20233;-71
2023/08/24 20:11:13;;;;;;;3.55;0.70;;;21.30;99.90;;;;;;4825288;29;20244;-72
2023/08/24 20:13:41;;;;;;;2.40;1.08;;;21.30;99.90;;;;;;4825171;29;20332;-71
2023/08/24 20:16:08;;;;;;;2.30;0.95;;;21.20;99.90;;;;;;4825159;29;20633;-71
2023/08/24 20:18:36;;;;;;;3.05;1.10;;;21.30;99.90;;;;;;4825489;29;20279;-72
2023/08/24 20:21:05;;;;;;;8.02;0.93;;;21.30;99.90;;;;;;4825142;29;20239;-71
2023/08/24 20:23:32;;;;;;;1.55;0.98;;;21.30;99.90;;;;;;4825046;29;20217;-72
2023/08/24 20:26:00;;;;;;;5.40;1.80;;;21.30;99.90;;;;;;4825050;29;20304;-72
2023/08/24 20:28:31;;;;;;;4.53;2.05;;;21.30;99.90;;;;;;4824940;29;20237;-71
2023/08/24 20:31:00;;;;;;;2.65;1.60;;;21.30;99.90;;;;;;4825200;29;20216;-71
2023/08/24 20:33:26;;;;;;;3.33;1.55;;;21.30;99.90;;;;;;4824817;29;20341;-72
2023/08/24 20:35:53;;;;;;;2.38;1.00;;;21.30;99.90;;;;;;4824606;29;20639;-72
2023/08/24 20:38:21;;;;;;;2.33;1.23;;;21.40;99.90;;;;;;4825017;29;20293;-71
2023/08/24 20:40:48;;;;;;;2.03;1.17;;;21.50;99.90;;;;;;4824711;29;20214;-72
2023/08/24 20:43:15;;;;;;;1.80;1.00;;;21.60;99.90;;;;;;4824888;29;20312;-71
2023/08/24 20:45:42;;;;;;;2.65;1.25;;;21.60;99.90;;;;;;4824753;29;20644;-72
2023/08/24 20:48:10;;;;;;;2.92;1.00;;;21.60;99.90;;;;;;4824358;29;20253;-71
2023/08/24 20:50:37;;;;;;;3.30;1.20;;;21.60;99.90;;;;;;4823040;29;20748;-72
2023/08/24 20:53:06;;;;;;;1.98;1.13;;;21.30;99.90;;;;;;4823714;29;20675;-72
2023/08/24 20:55:34;;;;;;;1.73;1.10;;;21.10;99.90;;;;;;4823746;29;20270;-72
2023/08/24 20:58:01;;;;;;;2.15;1.20;;;21.20;99.90;;;;;;4824320;29;20256;-73
2023/08/24 21:00:28;;;;;;;1.25;0.88;;;21.30;99.90;;;;;;4824315;29;20297;-72
2023/08/24 21:02:54;;;;;;;2.55;1.65;;;21.30;99.90;;;;;;4824474;29;20314;-72
2023/08/24 21:05:23;;;;;;;5.22;1.20;;;21.20;99.90;;;;;;4823660;29;20214;-73
